sensor_id;sensor_type;location;lat;lon;timestamp;P1;durP1;ratioP1;P2;durP2;ratioP2
4468;SDS011;2247;42.666;23.292;2022-11-14T00:02:05;38.30;;;21.13;;
4468;SDS011;2247;42.666;23.292;2022-11-14T00:04:32;42.33;;;21.47;;
4468;SDS011;2247;42.666;23.292;2022-11-14T00:06:59;37.13;;;21.00;;
4468;SDS011;2247;42.666;23.292;2022-11-14T00:09:26;37.27;;;20.70;;
4468;SDS011;2247;42.666;23.292;2022-11-14T00:11:54;37.63;;;20.73;;
4468;SDS011;2247;42.666;23.292;2022-11-14T00:14:21;42.63;;;22.87;;
4468;SDS011;2247;42.666;23.292;2022-11-14T00:16:48;39.87;;;21.63;;
4468;SDS011;2247;42.666;23.292;2022-11-14T00:19:17;50.47;;;27.30;;
4468;SDS011;2247;42.666;23.292;2022-11-14T00:21:44;49.20;;;25.83;;
4468;SDS011;2247;42.666;23.292;2022-11-14T00:24:11;56.53;;;29.60;;
4468;SDS011;2247;42.666;23.292;2022-11-14T00:26:38;51.93;;;27.67;;
4468;SDS011;2247;42.666;23.292;2022-11-14T00:29:05;67.63;;;33.63;;
4468;SDS011;2247;42.666;23.292;2022-11-14T00:31:32;56.43;;;30.27;;
4468;SDS011;2247;42.666;23.292;2022-11-14T00:33:59;56.07;;;32.10;;
4468;SDS011;2247;42.666;23.292;2022-11-14T00:36:27;57.93;;;31.10;;
4468;SDS011;2247;42.666;23.292;2022-11-14T00:38:55;62.43;;;30.40;;
4468;SDS011;2247;42.666;23.292;2022-11-14T00:41:22;47.67;;;25.53;;
4468;SDS011;2247;42.666;23.292;2022-11-14T00:43:49;55.03;;;27.27;;
4468;SDS011;2247;42.666;23.292;2022-11-14T00:46:16;51.70;;;27.00;;
4468;SDS011;2247;42.666;23.292;2022-11-14T00:48:43;48.37;;;25.90;;
4468;SDS011;2247;42.666;23.292;2022-11-14T00:51:09;49.70;;;26.97;;
4468;SDS011;2247;42.666;23.292;2022-11-14T00:53:38;53.30;;;28.90;;
4468;SDS011;2247;42.666;23.292;2022-11-14T00:56:05;50.20;;;28.63;;
4468;SDS011;2247;42.666;23.292;2022-11-14T00:58:32;53.37;;;28.00;;
4468;SDS011;2247;42.666;23.292;2022-11-14T01:00:58;63.40;;;34.17;;
4468;SDS011;2247;42.666;23.292;2022-11-14T01:03:25;65.87;;;33.93;;
4468;SDS011;2247;42.666;23.292;2022-11-14T01:05:53;58.10;;;33.27;;
4468;SDS011;2247;42.666;23.292;2022-11-14T01:08:20;58.70;;;30.90;;
4468;SDS011;2247;42.666;23.292;2022-11-14T01:10:49;61.07;;;34.40;;
4468;SDS011;2247;42.666;23.292;2022-11-14T01:13:17;52.93;;;30.00;;
4468;SDS011;2247;42.666;23.292;2022-11-14T01:15:45;57.10;;;30.30;;
4468;SDS011;2247;42.666;23.292;2022-11-14T01:18:14;58.57;;;31.20;;
4468;SDS011;2247;42.666;23.292;2022-11-14T01:20:43;53.73;;;29.40;;
4468;SDS011;2247;42.666;23.292;2022-11-14T01:23:12;51.30;;;28.77;;
4468;SDS011;2247;42.666;23.292;2022-11-14T01:25:41;51.20;;;28.67;;
4468;SDS011;2247;42.666;23.292;2022-11-14T01:28:11;55.83;;;29.57;;
4468;SDS011;2247;42.666;23.292;2022-11-14T01:30:40;53.73;;;30.43;;
4468;SDS011;2247;42.666;23.292;2022-11-14T01:33:07;55.37;;;29.73;;
4468;SDS011;2247;42.666;23.292;2022-11-14T01:35:35;51.77;;;29.30;;
4468;SDS011;2247;42.666;23.292;2022-11-14T01:38:04;55.50;;;28.00;;
4468;SDS011;2247;42.666;23.292;2022-11-14T01:40:31;49.03;;;26.87;;
4468;SDS011;2247;42.666;23.292;2022-11-14T01:45:53;53.07;;;28.10;;
4468;SDS011;2247;42.666;23.292;2022-11-14T01:48:23;51.73;;;27.60;;
4468;SDS011;2247;42.666;23.292;2022-11-14T01:50:55;51.97;;;27.27;;
4468;SDS011;2247;42.666;23.292;2022-11-14T01:53:25;53.97;;;27.73;;
4468;SDS011;2247;42.666;23.292;2022-11-14T01:55:54;45.37;;;25.90;;
4468;SDS011;2247;42.666;23.292;2022-11-14T01:58:25;48.87;;;26.87;;
4468;SDS011;2247;42.666;23.292;2022-11-14T02:00:54;48.90;;;26.57;;
4468;SDS011;2247;42.666;23.292;2022-11-14T02:03:21;49.23;;;26.37;;
4468;SDS011;2247;42.666;23.292;2022-11-14T02:05:48;49.60;;;26.30;;
4468;SDS011;2247;42.666;23.292;2022-11-14T02:08:16;48.50;;;25.50;;
4468;SDS011;2247;42.666;23.292;2022-11-14T02:10:44;47.70;;;26.37;;
4468;SDS011;2247;42.666;23.292;2022-11-14T02:13:10;54.87;;;26.67;;
4468;SDS011;2247;42.666;23.292;2022-11-14T02:15:38;48.17;;;25.07;;
4468;SDS011;2247;42.666;23.292;2022-11-14T02:18:06;39.80;;;23.23;;
4468;SDS011;2247;42.666;23.292;2022-11-14T02:20:35;45.80;;;22.00;;
4468;SDS011;2247;42.666;23.292;2022-11-14T02:23:08;48.50;;;23.10;;
4468;SDS011;2247;42.666;23.292;2022-11-14T02:25:36;42.90;;;22.93;;
4468;SDS011;2247;42.666;23.292;2022-11-14T02:28:04;46.00;;;24.47;;
4468;SDS011;2247;42.666;23.292;2022-11-14T02:30:32;46.33;;;25.40;;
4468;SDS011;2247;42.666;23.292;2022-11-14T02:32:59;45.27;;;25.27;;
4468;SDS011;2247;42.666;23.292;2022-11-14T02:35:26;51.37;;;26.00;;
4468;SDS011;2247;42.666;23.292;2022-11-14T02:37:54;65.87;;;33.57;;
4468;SDS011;2247;42.666;23.292;2022-11-14T02:40:21;65.47;;;34.70;;
4468;SDS011;2247;42.666;23.292;2022-11-14T02:42:48;64.40;;;34.60;;
4468;SDS011;2247;42.666;23.292;2022-11-14T02:45:15;64.40;;;32.87;;
4468;SDS011;2247;42.666;23.292;2022-11-14T02:47:43;48.10;;;27.37;;
4468;SDS011;2247;42.666;23.292;2022-11-14T02:50:10;68.27;;;37.00;;
4468;SDS011;2247;42.666;23.292;2022-11-14T02:52:37;71.27;;;36.03;;
4468;SDS011;2247;42.666;23.292;2022-11-14T02:55:06;63.53;;;34.53;;
4468;SDS011;2247;42.666;23.292;2022-11-14T02:57:33;65.70;;;32.30;;
4468;SDS011;2247;42.666;23.292;2022-11-14T03:00:00;61.27;;;34.63;;
4468;SDS011;2247;42.666;23.292;2022-11-14T03:02:27;65.37;;;34.10;;
4468;SDS011;2247;42.666;23.292;2022-11-14T03:04:54;64.00;;;33.20;;
4468;SDS011;2247;42.666;23.292;2022-11-14T03:07:21;62.27;;;34.33;;
4468;SDS011;2247;42.666;23.292;2022-11-14T03:09:48;62.77;;;33.73;;
4468;SDS011;2247;42.666;23.292;2022-11-14T03:12:17;63.60;;;32.67;;
4468;SDS011;2247;42.666;23.292;2022-11-14T03:14:44;70.37;;;36.87;;
4468;SDS011;2247;42.666;23.292;2022-11-14T03:17:11;67.60;;;35.50;;
4468;SDS011;2247;42.666;23.292;2022-11-14T03:19:38;65.43;;;34.60;;
4468;SDS011;2247;42.666;23.292;2022-11-14T03:22:05;62.77;;;32.80;;
4468;SDS011;2247;42.666;23.292;2022-11-14T03:24:32;56.13;;;31.47;;
4468;SDS011;2247;42.666;23.292;2022-11-14T03:26:59;65.97;;;33.47;;
4468;SDS011;2247;42.666;23.292;2022-11-14T03:29:27;56.00;;;31.70;;
4468;SDS011;2247;42.666;23.292;2022-11-14T03:31:54;61.00;;;31.17;;
4468;SDS011;2247;42.666;23.292;2022-11-14T03:34:21;64.47;;;32.83;;
4468;SDS011;2247;42.666;23.292;2022-11-14T03:36:48;59.47;;;31.97;;
4468;SDS011;2247;42.666;23.292;2022-11-14T03:39:15;60.47;;;32.17;;
4468;SDS011;2247;42.666;23.292;2022-11-14T03:41:42;60.43;;;30.77;;
4468;SDS011;2247;42.666;23.292;2022-11-14T03:44:09;57.47;;;30.27;;
4468;SDS011;2247;42.666;23.292;2022-11-14T03:46:37;57.27;;;29.70;;
4468;SDS011;2247;42.666;23.292;2022-11-14T03:49:04;54.53;;;28.70;;
4468;SDS011;2247;42.666;23.292;2022-11-14T03:51:31;49.73;;;28.20;;
4468;SDS011;2247;42.666;23.292;2022-11-14T03:53:58;56.40;;;28.47;;
4468;SDS011;2247;42.666;23.292;2022-11-14T03:56:25;52.20;;;29.23;;
4468;SDS011;2247;42.666;23.292;2022-11-14T03:58:51;54.40;;;29.83;;
4468;SDS011;2247;42.666;23.292;2022-11-14T04:01:18;52.20;;;29.60;;
4468;SDS011;2247;42.666;23.292;2022-11-14T04:03:47;48.23;;;27.53;;
4468;SDS011;2247;42.666;23.292;2022-11-14T04:06:14;46.47;;;26.90;;
4468;SDS011;2247;42.666;23.292;2022-11-14T04:08:41;48.30;;;28.03;;
4468;SDS011;2247;42.666;23.292;2022-11-14T04:11:07;56.13;;;29.73;;
4468;SDS011;2247;42.666;23.292;2022-11-14T04:13:34;67.07;;;28.50;;
4468;SDS011;2247;42.666;23.292;2022-11-14T04:16:01;59.90;;;28.30;;
4468;SDS011;2247;42.666;23.292;2022-11-14T04:18:28;54.67;;;29.37;;
4468;SDS011;2247;42.666;23.292;2022-11-14T04:20:56;53.17;;;29.00;;
4468;SDS011;2247;42.666;23.292;2022-11-14T04:23:23;53.97;;;27.43;;
4468;SDS011;2247;42.666;23.292;2022-11-14T04:25:50;56.20;;;27.80;;
4468;SDS011;2247;42.666;23.292;2022-11-14T04:28:17;53.50;;;28.57;;
4468;SDS011;2247;42.666;23.292;2022-11-14T04:30:44;54.63;;;27.00;;
4468;SDS011;2247;42.666;23.292;2022-11-14T04:33:11;51.80;;;26.57;;
4468;SDS011;2247;42.666;23.292;2022-11-14T04:35:38;52.47;;;27.63;;
4468;SDS011;2247;42.666;23.292;2022-11-14T04:38:08;52.80;;;28.70;;
4468;SDS011;2247;42.666;23.292;2022-11-14T04:40:35;66.23;;;32.03;;
4468;SDS011;2247;42.666;23.292;2022-11-14T04:43:02;55.90;;;28.60;;
4468;SDS011;2247;42.666;23.292;2022-11-14T04:45:29;53.23;;;27.67;;
4468;SDS011;2247;42.666;23.292;2022-11-14T04:47:56;54.27;;;27.37;;
4468;SDS011;2247;42.666;23.292;2022-11-14T04:50:23;51.40;;;27.67;;
4468;SDS011;2247;42.666;23.292;2022-11-14T04:52:50;54.13;;;27.70;;
4468;SDS011;2247;42.666;23.292;2022-11-14T04:55:19;55.33;;;26.70;;
4468;SDS011;2247;42.666;23.292;2022-11-14T04:57:47;47.60;;;25.87;;
4468;SDS011;2247;42.666;23.292;2022-11-14T05:00:18;42.77;;;23.70;;
4468;SDS011;2247;42.666;23.292;2022-11-14T05:02:45;41.30;;;23.37;;
4468;SDS011;2247;42.666;23.292;2022-11-14T05:05:12;45.83;;;23.10;;
4468;SDS011;2247;42.666;23.292;2022-11-14T05:07:39;40.97;;;23.43;;
4468;SDS011;2247;42.666;23.292;2022-11-14T05:10:07;48.50;;;24.90;;
4468;SDS011;2247;42.666;23.292;2022-11-14T05:12:36;43.30;;;23.43;;
4468;SDS011;2247;42.666;23.292;2022-11-14T05:15:03;40.37;;;22.90;;
4468;SDS011;2247;42.666;23.292;2022-11-14T05:17:30;49.80;;;25.13;;
4468;SDS011;2247;42.666;23.292;2022-11-14T05:19:57;52.80;;;26.80;;
4468;SDS011;2247;42.666;23.292;2022-11-14T05:22:24;50.10;;;25.67;;
4468;SDS011;2247;42.666;23.292;2022-11-14T05:24:51;48.17;;;25.07;;
4468;SDS011;2247;42.666;23.292;2022-11-14T05:27:18;56.10;;;27.23;;
4468;SDS011;2247;42.666;23.292;2022-11-14T05:29:47;61.73;;;27.50;;
4468;SDS011;2247;42.666;23.292;2022-11-14T05:32:14;56.77;;;26.60;;
4468;SDS011;2247;42.666;23.292;2022-11-14T05:34:42;82.30;;;29.30;;
4468;SDS011;2247;42.666;23.292;2022-11-14T05:37:08;74.67;;;29.90;;
4468;SDS011;2247;42.666;23.292;2022-11-14T05:39:36;75.13;;;28.13;;
4468;SDS011;2247;42.666;23.292;2022-11-14T05:42:03;81.10;;;30.03;;
4468;SDS011;2247;42.666;23.292;2022-11-14T05:44:30;61.40;;;28.63;;
4468;SDS011;2247;42.666;23.292;2022-11-14T05:46:59;76.60;;;32.00;;
4468;SDS011;2247;42.666;23.292;2022-11-14T05:49:26;73.03;;;30.13;;
4468;SDS011;2247;42.666;23.292;2022-11-14T05:51:53;78.93;;;30.63;;
4468;SDS011;2247;42.666;23.292;2022-11-14T05:54:21;113.57;;;29.07;;
4468;SDS011;2247;42.666;23.292;2022-11-14T05:56:48;58.70;;;27.47;;
4468;SDS011;2247;42.666;23.292;2022-11-14T05:59:15;73.83;;;28.70;;
4468;SDS011;2247;42.666;23.292;2022-11-14T06:01:42;79.23;;;30.47;;
4468;SDS011;2247;42.666;23.292;2022-11-14T06:04:11;69.37;;;28.43;;
4468;SDS011;2247;42.666;23.292;2022-11-14T06:06:40;67.87;;;29.43;;
4468;SDS011;2247;42.666;23.292;2022-11-14T06:09:07;78.70;;;30.13;;
4468;SDS011;2247;42.666;23.292;2022-11-14T06:11:34;82.83;;;30.50;;
4468;SDS011;2247;42.666;23.292;2022-11-14T06:14:02;69.73;;;29.33;;
4468;SDS011;2247;42.666;23.292;2022-11-14T06:16:29;64.83;;;28.73;;
4468;SDS011;2247;42.666;23.292;2022-11-14T06:18:56;60.90;;;28.87;;
4468;SDS011;2247;42.666;23.292;2022-11-14T06:21:24;76.53;;;27.70;;
4468;SDS011;2247;42.666;23.292;2022-11-14T06:23:51;59.23;;;28.00;;
4468;SDS011;2247;42.666;23.292;2022-11-14T06:26:20;82.83;;;28.90;;
4468;SDS011;2247;42.666;23.292;2022-11-14T06:28:48;77.70;;;29.40;;
4468;SDS011;2247;42.666;23.292;2022-11-14T06:31:16;71.50;;;28.70;;
4468;SDS011;2247;42.666;23.292;2022-11-14T06:33:44;76.13;;;27.67;;
4468;SDS011;2247;42.666;23.292;2022-11-14T06:36:12;75.47;;;28.60;;
4468;SDS011;2247;42.666;23.292;2022-11-14T06:38:41;52.07;;;26.77;;
4468;SDS011;2247;42.666;23.292;2022-11-14T06:41:10;65.80;;;28.40;;
4468;SDS011;2247;42.666;23.292;2022-11-14T06:43:39;69.47;;;27.17;;
4468;SDS011;2247;42.666;23.292;2022-11-14T06:46:08;53.97;;;26.40;;
4468;SDS011;2247;42.666;23.292;2022-11-14T06:48:36;59.27;;;26.77;;
4468;SDS011;2247;42.666;23.292;2022-11-14T06:51:04;59.33;;;26.30;;
4468;SDS011;2247;42.666;23.292;2022-11-14T06:53:33;57.20;;;27.50;;
4468;SDS011;2247;42.666;23.292;2022-11-14T06:56:03;64.37;;;28.60;;
4468;SDS011;2247;42.666;23.292;2022-11-14T06:58:32;66.03;;;28.70;;
4468;SDS011;2247;42.666;23.292;2022-11-14T07:01:03;55.00;;;26.00;;
4468;SDS011;2247;42.666;23.292;2022-11-14T07:03:31;61.70;;;27.57;;
4468;SDS011;2247;42.666;23.292;2022-11-14T07:06:00;59.33;;;27.53;;
4468;SDS011;2247;42.666;23.292;2022-11-14T07:08:27;52.10;;;26.63;;
4468;SDS011;2247;42.666;23.292;2022-11-14T07:10:59;58.40;;;28.43;;
4468;SDS011;2247;42.666;23.292;2022-11-14T07:13:28;65.80;;;28.67;;
4468;SDS011;2247;42.666;23.292;2022-11-14T07:15:56;64.60;;;27.87;;
4468;SDS011;2247;42.666;23.292;2022-11-14T07:18:23;60.93;;;26.20;;
4468;SDS011;2247;42.666;23.292;2022-11-14T07:20:55;74.83;;;26.87;;
4468;SDS011;2247;42.666;23.292;2022-11-14T07:23:23;57.30;;;28.23;;
4468;SDS011;2247;42.666;23.292;2022-11-14T07:25:50;61.43;;;27.10;;
4468;SDS011;2247;42.666;23.292;2022-11-14T07:28:19;53.00;;;25.10;;
4468;SDS011;2247;42.666;23.292;2022-11-14T07:30:46;58.13;;;27.90;;
4468;SDS011;2247;42.666;23.292;2022-11-14T07:33:13;58.70;;;28.37;;
4468;SDS011;2247;42.666;23.292;2022-11-14T07:35:42;60.53;;;28.57;;
4468;SDS011;2247;42.666;23.292;2022-11-14T07:38:08;62.53;;;29.30;;
4468;SDS011;2247;42.666;23.292;2022-11-14T07:40:35;52.00;;;27.40;;
4468;SDS011;2247;42.666;23.292;2022-11-14T07:43:02;62.57;;;29.23;;
4468;SDS011;2247;42.666;23.292;2022-11-14T07:45:32;57.10;;;28.87;;
4468;SDS011;2247;42.666;23.292;2022-11-14T07:47:59;65.77;;;29.87;;
4468;SDS011;2247;42.666;23.292;2022-11-14T07:50:27;59.63;;;28.77;;
4468;SDS011;2247;42.666;23.292;2022-11-14T07:52:55;65.70;;;30.33;;
4468;SDS011;2247;42.666;23.292;2022-11-14T07:55:22;64.40;;;29.77;;
4468;SDS011;2247;42.666;23.292;2022-11-14T07:57:51;61.27;;;29.37;;
4468;SDS011;2247;42.666;23.292;2022-11-14T08:00:19;68.60;;;31.57;;
4468;SDS011;2247;42.666;23.292;2022-11-14T08:02:48;68.20;;;30.67;;
4468;SDS011;2247;42.666;23.292;2022-11-14T08:05:16;77.67;;;34.20;;
4468;SDS011;2247;42.666;23.292;2022-11-14T08:07:43;67.40;;;29.90;;
4468;SDS011;2247;42.666;23.292;2022-11-14T08:10:10;67.90;;;31.63;;
4468;SDS011;2247;42.666;23.292;2022-11-14T08:12:38;72.90;;;32.17;;
4468;SDS011;2247;42.666;23.292;2022-11-14T08:15:07;65.47;;;30.10;;
4468;SDS011;2247;42.666;23.292;2022-11-14T08:17:36;74.77;;;32.73;;
4468;SDS011;2247;42.666;23.292;2022-11-14T08:20:07;92.07;;;32.23;;
4468;SDS011;2247;42.666;23.292;2022-11-14T08:22:35;62.00;;;29.90;;
4468;SDS011;2247;42.666;23.292;2022-11-14T08:25:02;66.77;;;30.30;;
4468;SDS011;2247;42.666;23.292;2022-11-14T08:27:30;62.87;;;30.23;;
4468;SDS011;2247;42.666;23.292;2022-11-14T08:29:57;66.77;;;30.33;;
4468;SDS011;2247;42.666;23.292;2022-11-14T08:32:24;68.20;;;31.60;;
4468;SDS011;2247;42.666;23.292;2022-11-14T08:34:51;68.60;;;31.33;;
4468;SDS011;2247;42.666;23.292;2022-11-14T08:37:19;71.27;;;32.80;;
4468;SDS011;2247;42.666;23.292;2022-11-14T08:39:46;71.80;;;33.07;;
4468;SDS011;2247;42.666;23.292;2022-11-14T08:42:13;80.50;;;34.73;;
4468;SDS011;2247;42.666;23.292;2022-11-14T08:44:40;73.80;;;35.40;;
4468;SDS011;2247;42.666;23.292;2022-11-14T08:47:07;83.77;;;36.40;;
4468;SDS011;2247;42.666;23.292;2022-11-14T08:49:34;76.93;;;34.73;;
4468;SDS011;2247;42.666;23.292;2022-11-14T08:52:02;85.33;;;36.40;;
4468;SDS011;2247;42.666;23.292;2022-11-14T08:54:30;81.70;;;36.93;;
4468;SDS011;2247;42.666;23.292;2022-11-14T08:56:57;78.47;;;36.17;;
4468;SDS011;2247;42.666;23.292;2022-11-14T08:59:24;81.33;;;38.40;;
4468;SDS011;2247;42.666;23.292;2022-11-14T09:01:51;78.40;;;36.03;;
4468;SDS011;2247;42.666;23.292;2022-11-14T09:04:18;73.40;;;35.43;;
4468;SDS011;2247;42.666;23.292;2022-11-14T09:06:46;75.23;;;34.57;;
4468;SDS011;2247;42.666;23.292;2022-11-14T09:09:16;77.20;;;35.50;;
4468;SDS011;2247;42.666;23.292;2022-11-14T09:11:45;76.20;;;35.80;;
4468;SDS011;2247;42.666;23.292;2022-11-14T09:14:12;77.60;;;37.40;;
4468;SDS011;2247;42.666;23.292;2022-11-14T09:16:38;79.73;;;36.33;;
4468;SDS011;2247;42.666;23.292;2022-11-14T09:19:05;76.23;;;36.13;;
4468;SDS011;2247;42.666;23.292;2022-11-14T09:21:32;80.10;;;37.10;;
4468;SDS011;2247;42.666;23.292;2022-11-14T09:23:59;73.10;;;35.07;;
4468;SDS011;2247;42.666;23.292;2022-11-14T09:26:26;72.63;;;37.60;;
4468;SDS011;2247;42.666;23.292;2022-11-14T09:28:55;88.17;;;37.27;;
4468;SDS011;2247;42.666;23.292;2022-11-14T09:31:21;72.33;;;37.33;;
4468;SDS011;2247;42.666;23.292;2022-11-14T09:33:48;71.23;;;37.60;;
4468;SDS011;2247;42.666;23.292;2022-11-14T09:36:15;70.33;;;37.27;;
4468;SDS011;2247;42.666;23.292;2022-11-14T09:38:42;77.87;;;38.63;;
4468;SDS011;2247;42.666;23.292;2022-11-14T09:41:15;77.03;;;37.00;;
4468;SDS011;2247;42.666;23.292;2022-11-14T09:46:52;76.20;;;39.90;;
4468;SDS011;2247;42.666;23.292;2022-11-14T09:49:24;80.93;;;40.43;;
4468;SDS011;2247;42.666;23.292;2022-11-14T09:51:58;77.87;;;38.90;;
4468;SDS011;2247;42.666;23.292;2022-11-14T09:54:33;78.70;;;40.67;;
4468;SDS011;2247;42.666;23.292;2022-11-14T09:57:12;78.83;;;39.17;;
4468;SDS011;2247;42.666;23.292;2022-11-14T09:59:42;77.53;;;38.57;;
4468;SDS011;2247;42.666;23.292;2022-11-14T10:02:13;73.30;;;38.83;;
4468;SDS011;2247;42.666;23.292;2022-11-14T10:04:55;79.27;;;37.80;;
4468;SDS011;2247;42.666;23.292;2022-11-14T10:07:36;71.37;;;39.07;;
4468;SDS011;2247;42.666;23.292;2022-11-14T10:10:16;83.00;;;38.80;;
4468;SDS011;2247;42.666;23.292;2022-11-14T10:12:57;79.13;;;38.00;;
4468;SDS011;2247;42.666;23.292;2022-11-14T10:15:35;68.87;;;37.40;;
4468;SDS011;2247;42.666;23.292;2022-11-14T10:18:12;75.47;;;37.27;;
4468;SDS011;2247;42.666;23.292;2022-11-14T10:20:52;70.07;;;37.47;;
4468;SDS011;2247;42.666;23.292;2022-11-14T10:23:25;71.43;;;35.80;;
4468;SDS011;2247;42.666;23.292;2022-11-14T10:26:04;64.00;;;34.13;;
4468;SDS011;2247;42.666;23.292;2022-11-14T10:28:41;71.07;;;34.77;;
4468;SDS011;2247;42.666;23.292;2022-11-14T10:31:21;56.43;;;32.23;;
4468;SDS011;2247;42.666;23.292;2022-11-14T10:33:56;57.70;;;33.03;;
4468;SDS011;2247;42.666;23.292;2022-11-14T10:36:35;65.77;;;35.73;;
4468;SDS011;2247;42.666;23.292;2022-11-14T10:39:14;61.73;;;35.70;;
4468;SDS011;2247;42.666;23.292;2022-11-14T10:41:46;57.60;;;32.53;;
4468;SDS011;2247;42.666;23.292;2022-11-14T10:44:17;69.20;;;35.43;;
4468;SDS011;2247;42.666;23.292;2022-11-14T10:46:52;60.43;;;31.13;;
4468;SDS011;2247;42.666;23.292;2022-11-14T10:49:23;63.70;;;33.10;;
4468;SDS011;2247;42.666;23.292;2022-11-14T10:51:51;60.80;;;35.57;;
4468;SDS011;2247;42.666;23.292;2022-11-14T10:54:21;63.80;;;35.50;;
4468;SDS011;2247;42.666;23.292;2022-11-14T10:56:53;66.50;;;34.93;;
4468;SDS011;2247;42.666;23.292;2022-11-14T10:59:20;63.80;;;35.73;;
4468;SDS011;2247;42.666;23.292;2022-11-14T11:01:56;61.27;;;33.07;;
4468;SDS011;2247;42.666;23.292;2022-11-14T11:04:24;60.10;;;33.70;;
4468;SDS011;2247;42.666;23.292;2022-11-14T11:06:53;66.87;;;34.90;;
4468;SDS011;2247;42.666;23.292;2022-11-14T11:09:22;75.40;;;35.63;;
4468;SDS011;2247;42.666;23.292;2022-11-14T11:12:08;80.60;;;35.60;;
4468;SDS011;2247;42.666;23.292;2022-11-14T11:14:41;69.30;;;37.30;;
4468;SDS011;2247;42.666;23.292;2022-11-14T11:17:17;62.37;;;35.83;;
4468;SDS011;2247;42.666;23.292;2022-11-14T11:19:47;68.93;;;37.10;;
4468;SDS011;2247;42.666;23.292;2022-11-14T11:22:27;71.60;;;36.13;;
4468;SDS011;2247;42.666;23.292;2022-11-14T11:25:01;63.60;;;34.37;;
4468;SDS011;2247;42.666;23.292;2022-11-14T11:27:28;69.53;;;36.17;;
4468;SDS011;2247;42.666;23.292;2022-11-14T11:30:03;67.50;;;37.87;;
4468;SDS011;2247;42.666;23.292;2022-11-14T11:32:44;64.73;;;34.50;;
4468;SDS011;2247;42.666;23.292;2022-11-14T11:35:11;64.90;;;35.47;;
4468;SDS011;2247;42.666;23.292;2022-11-14T11:37:41;71.70;;;34.70;;
4468;SDS011;2247;42.666;23.292;2022-11-14T11:40:18;63.43;;;34.20;;
4468;SDS011;2247;42.666;23.292;2022-11-14T11:42:49;65.33;;;35.10;;
4468;SDS011;2247;42.666;23.292;2022-11-14T11:45:23;64.97;;;36.03;;
4468;SDS011;2247;42.666;23.292;2022-11-14T11:47:54;74.30;;;37.20;;
4468;SDS011;2247;42.666;23.292;2022-11-14T11:50:24;62.83;;;34.00;;
4468;SDS011;2247;42.666;23.292;2022-11-14T11:52:57;67.03;;;36.40;;
4468;SDS011;2247;42.666;23.292;2022-11-14T11:55:32;76.07;;;36.60;;
4468;SDS011;2247;42.666;23.292;2022-11-14T11:58:04;73.27;;;36.03;;
4468;SDS011;2247;42.666;23.292;2022-11-14T12:00:37;64.00;;;34.90;;
4468;SDS011;2247;42.666;23.292;2022-11-14T12:03:08;70.20;;;35.07;;
4468;SDS011;2247;42.666;23.292;2022-11-14T12:05:41;64.97;;;34.10;;
4468;SDS011;2247;42.666;23.292;2022-11-14T12:08:17;69.63;;;36.57;;
4468;SDS011;2247;42.666;23.292;2022-11-14T12:10:49;67.83;;;34.53;;
4468;SDS011;2247;42.666;23.292;2022-11-14T12:16:23;64.33;;;35.10;;
4468;SDS011;2247;42.666;23.292;2022-11-14T12:19:16;66.23;;;33.30;;
4468;SDS011;2247;42.666;23.292;2022-11-14T12:22:03;74.77;;;38.80;;
4468;SDS011;2247;42.666;23.292;2022-11-14T12:24:53;76.97;;;38.30;;
4468;SDS011;2247;42.666;23.292;2022-11-14T12:27:35;69.97;;;37.50;;
4468;SDS011;2247;42.666;23.292;2022-11-14T12:30:14;74.00;;;40.37;;
4468;SDS011;2247;42.666;23.292;2022-11-14T12:32:46;77.87;;;37.97;;
4468;SDS011;2247;42.666;23.292;2022-11-14T12:35:19;70.23;;;37.43;;
4468;SDS011;2247;42.666;23.292;2022-11-14T12:37:50;73.60;;;37.10;;
4468;SDS011;2247;42.666;23.292;2022-11-14T12:40:23;74.10;;;38.43;;
4468;SDS011;2247;42.666;23.292;2022-11-14T12:42:54;72.80;;;38.40;;
4468;SDS011;2247;42.666;23.292;2022-11-14T12:48:28;77.27;;;37.80;;
4468;SDS011;2247;42.666;23.292;2022-11-14T12:50:59;67.10;;;37.83;;
4468;SDS011;2247;42.666;23.292;2022-11-14T12:53:36;74.40;;;39.17;;
4468;SDS011;2247;42.666;23.292;2022-11-14T12:56:16;77.23;;;38.67;;
4468;SDS011;2247;42.666;23.292;2022-11-14T12:59:05;75.73;;;36.60;;
4468;SDS011;2247;42.666;23.292;2022-11-14T13:01:45;74.97;;;38.10;;
4468;SDS011;2247;42.666;23.292;2022-11-14T13:04:25;81.67;;;37.93;;
4468;SDS011;2247;42.666;23.292;2022-11-14T13:07:12;81.30;;;37.80;;
4468;SDS011;2247;42.666;23.292;2022-11-14T13:09:53;71.93;;;37.10;;
4468;SDS011;2247;42.666;23.292;2022-11-14T13:12:28;70.17;;;38.10;;
4468;SDS011;2247;42.666;23.292;2022-11-14T13:15:22;73.00;;;38.83;;
4468;SDS011;2247;42.666;23.292;2022-11-14T13:18:12;78.87;;;39.97;;
4468;SDS011;2247;42.666;23.292;2022-11-14T13:21:01;75.30;;;39.40;;
4468;SDS011;2247;42.666;23.292;2022-11-14T13:23:55;71.37;;;38.93;;
4468;SDS011;2247;42.666;23.292;2022-11-14T13:26:41;72.73;;;37.87;;
4468;SDS011;2247;42.666;23.292;2022-11-14T13:35:31;78.57;;;38.90;;
4468;SDS011;2247;42.666;23.292;2022-11-14T13:41:17;75.90;;;40.70;;
4468;SDS011;2247;42.666;23.292;2022-11-14T13:44:05;70.60;;;38.80;;
4468;SDS011;2247;42.666;23.292;2022-11-14T13:46:46;74.03;;;39.20;;
4468;SDS011;2247;42.666;23.292;2022-11-14T13:49:37;73.57;;;40.30;;
4468;SDS011;2247;42.666;23.292;2022-11-14T13:52:18;71.97;;;39.00;;
4468;SDS011;2247;42.666;23.292;2022-11-14T13:54:45;80.30;;;40.50;;
4468;SDS011;2247;42.666;23.292;2022-11-14T13:57:16;82.10;;;42.77;;
4468;SDS011;2247;42.666;23.292;2022-11-14T13:59:55;81.17;;;43.10;;
4468;SDS011;2247;42.666;23.292;2022-11-14T14:05:45;70.47;;;40.83;;
4468;SDS011;2247;42.666;23.292;2022-11-14T14:08:27;88.80;;;44.80;;
4468;SDS011;2247;42.666;23.292;2022-11-14T14:11:11;73.43;;;41.97;;
4468;SDS011;2247;42.666;23.292;2022-11-14T14:13:52;77.67;;;43.77;;
4468;SDS011;2247;42.666;23.292;2022-11-14T14:16:31;88.97;;;43.67;;
4468;SDS011;2247;42.666;23.292;2022-11-14T14:19:03;81.03;;;43.50;;
4468;SDS011;2247;42.666;23.292;2022-11-14T14:21:38;78.40;;;43.13;;
4468;SDS011;2247;42.666;23.292;2022-11-14T14:24:14;80.80;;;43.83;;
4468;SDS011;2247;42.666;23.292;2022-11-14T14:26:59;97.83;;;45.77;;
4468;SDS011;2247;42.666;23.292;2022-11-14T14:29:36;93.90;;;42.40;;
4468;SDS011;2247;42.666;23.292;2022-11-14T14:32:11;76.20;;;43.63;;
4468;SDS011;2247;42.666;23.292;2022-11-14T14:34:39;86.13;;;44.93;;
4468;SDS011;2247;42.666;23.292;2022-11-14T14:37:16;85.00;;;45.27;;
4468;SDS011;2247;42.666;23.292;2022-11-14T14:39:54;89.50;;;47.13;;
4468;SDS011;2247;42.666;23.292;2022-11-14T14:42:25;87.23;;;45.30;;
4468;SDS011;2247;42.666;23.292;2022-11-14T14:44:57;93.37;;;46.77;;
4468;SDS011;2247;42.666;23.292;2022-11-14T14:47:29;86.03;;;46.03;;
4468;SDS011;2247;42.666;23.292;2022-11-14T14:49:59;85.07;;;45.43;;
4468;SDS011;2247;42.666;23.292;2022-11-14T14:52:27;89.97;;;44.90;;
4468;SDS011;2247;42.666;23.292;2022-11-14T14:54:56;93.17;;;46.13;;
4468;SDS011;2247;42.666;23.292;2022-11-14T14:57:26;85.37;;;46.00;;
4468;SDS011;2247;42.666;23.292;2022-11-14T15:00:03;82.10;;;44.87;;
4468;SDS011;2247;42.666;23.292;2022-11-14T15:02:32;76.00;;;42.40;;
4468;SDS011;2247;42.666;23.292;2022-11-14T15:04:59;82.27;;;44.33;;
4468;SDS011;2247;42.666;23.292;2022-11-14T15:07:27;76.83;;;43.57;;
4468;SDS011;2247;42.666;23.292;2022-11-14T15:09:56;85.03;;;45.13;;
4468;SDS011;2247;42.666;23.292;2022-11-14T15:12:25;95.97;;;44.87;;
4468;SDS011;2247;42.666;23.292;2022-11-14T15:14:55;85.20;;;44.00;;
4468;SDS011;2247;42.666;23.292;2022-11-14T15:17:24;85.57;;;44.10;;